sensor_id;sensor_type;location;lat;lon;timestamp;pressure;altitude;pressure_sealevel;temperature;humidity
4528;BME280;62320;51.520;6.818;2024-01-27T00:09:47;102986.94;;;4.72;100.00
4528;BME280;62320;51.520;6.818;2024-01-27T00:19:49;102995.41;;;4.56;100.00
4528;BME280;62320;51.520;6.818;2024-01-27T00:29:51;102998.25;;;4.33;100.00
4528;BME280;62320;51.520;6.818;2024-01-27T00:39:53;103009.41;;;4.20;100.00
4528;BME280;62320;51.520;6.818;2024-01-27T00:49:54;103004.03;;;4.03;100.00
4528;BME280;62320;51.520;6.818;2024-01-27T00:59:56;103019.47;;;4.04;100.00
4528;BME280;62320;51.520;6.818;2024-01-27T01:09:58;103024.84;;;3.94;100.00
4528;BME280;62320;51.520;6.818;2024-01-27T01:19:59;103018.06;;;3.69;100.00
4528;BME280;62320;51.520;6.818;2024-01-27T01:30:01;103014.75;;;3.56;100.00
4528;BME280;62320;51.520;6.818;2024-01-27T01:40:02;103020.63;;;3.55;100.00
4528;BME280;62320;51.520;6.818;2024-01-27T01:50:05;103030.97;;;3.31;100.00
4528;BME280;62320;51.520;6.818;2024-01-27T02:00:07;103026.00;;;2.95;100.00
4528;BME280;62320;51.520;6.818;2024-01-27T02:10:16;103030.56;;;2.87;100.00
4528;BME280;62320;51.520;6.818;2024-01-27T02:20:17;103029.06;;;2.77;100.00
4528;BME280;62320;51.520;6.818;2024-01-27T02:30:19;103033.56;;;2.68;100.00
4528;BME280;62320;51.520;6.818;2024-01-27T02:40:21;103034.97;;;2.52;100.00
4528;BME280;62320;51.520;6.818;2024-01-27T02:50:22;103030.69;;;2.39;100.00
4528;BME280;62320;51.520;6.818;2024-01-27T03:00:23;103026.59;;;2.30;100.00
4528;BME280;62320;51.520;6.818;2024-01-27T03:10:25;103049.38;;;2.27;100.00
4528;BME280;62320;51.520;6.818;2024-01-27T03:20:26;103040.88;;;2.14;100.00
4528;BME280;62320;51.520;6.818;2024-01-27T03:30:29;103036.31;;;2.10;100.00
4528;BME280;62320;51.520;6.818;2024-01-27T03:40:30;103044.78;;;1.86;100.00
4528;BME280;62320;51.520;6.818;2024-01-27T03:50:32;103049.94;;;1.75;100.00
4528;BME280;62320;51.520;6.818;2024-01-27T04:00:33;103066.00;;;1.62;100.00
4528;BME280;62320;51.520;6.818;2024-01-27T04:10:36;103071.97;;;1.63;100.00
4528;BME280;62320;51.520;6.818;2024-01-27T04:20:38;103066.88;;;1.63;100.00
4528;BME280;62320;51.520;6.818;2024-01-27T04:30:39;103085.41;;;1.60;100.00
4528;BME280;62320;51.520;6.818;2024-01-27T04:40:41;103076.06;;;1.49;100.00
4528;BME280;62320;51.520;6.818;2024-01-27T04:50:42;103072.97;;;1.41;100.00
4528;BME280;62320;51.520;6.818;2024-01-27T05:00:44;103067.75;;;1.40;100.00
4528;BME280;62320;51.520;6.818;2024-01-27T05:10:45;103062.75;;;1.30;100.00
4528;BME280;62320;51.520;6.818;2024-01-27T05:20:47;103064.94;;;1.25;100.00
4528;BME280;62320;51.520;6.818;2024-01-27T05:30:48;103047.91;;;1.24;100.00
4528;BME280;62320;51.520;6.818;2024-01-27T05:40:50;103071.91;;;1.16;100.00
4528;BME280;62320;51.520;6.818;2024-01-27T05:50:59;103080.13;;;1.12;100.00
4528;BME280;62320;51.520;6.818;2024-01-27T06:01:01;103077.53;;;1.01;100.00
4528;BME280;62320;51.520;6.818;2024-01-27T06:11:02;103077.44;;;0.99;100.00
4528;BME280;62320;51.520;6.818;2024-01-27T06:21:10;103081.28;;;0.94;100.00
4528;BME280;62320;51.520;6.818;2024-01-27T06:31:12;103083.47;;;0.90;100.00
4528;BME280;62320;51.520;6.818;2024-01-27T06:41:13;103095.47;;;0.91;100.00
4528;BME280;62320;51.520;6.818;2024-01-27T06:51:14;103106.34;;;0.78;100.00
4528;BME280;62320;51.520;6.818;2024-01-27T07:01:16;103106.47;;;0.80;100.00
4528;BME280;62320;51.520;6.818;2024-01-27T07:11:18;103109.34;;;0.73;100.00
4528;BME280;62320;51.520;6.818;2024-01-27T07:21:19;103121.38;;;0.75;100.00
4528;BME280;62320;51.520;6.818;2024-01-27T07:31:21;103117.84;;;0.73;100.00
4528;BME280;62320;51.520;6.818;2024-01-27T07:41:23;103126.47;;;0.75;100.00
4528;BME280;62320;51.520;6.818;2024-01-27T07:51:24;103130.56;;;0.73;100.00
4528;BME280;62320;51.520;6.818;2024-01-27T08:01:26;103147.34;;;0.81;100.00
4528;BME280;62320;51.520;6.818;2024-01-27T08:11:27;103152.50;;;0.93;100.00
4528;BME280;62320;51.520;6.818;2024-01-27T08:21:31;103159.94;;;1.01;100.00
4528;BME280;62320;51.520;6.818;2024-01-27T08:31:32;103150.69;;;1.13;100.00
4528;BME280;62320;51.520;6.818;2024-01-27T08:41:34;103160.59;;;1.32;100.00
4528;BME280;62320;51.520;6.818;2024-01-27T08:51:35;103182.19;;;1.59;100.00
4528;BME280;62320;51.520;6.818;2024-01-27T09:01:37;103167.00;;;1.72;100.00
4528;BME280;62320;51.520;6.818;2024-01-27T09:11:38;103174.22;;;1.77;100.00
4528;BME280;62320;51.520;6.818;2024-01-27T09:21:40;103163.69;;;1.96;100.00
4528;BME280;62320;51.520;6.818;2024-01-27T09:31:41;103158.91;;;2.24;100.00
4528;BME280;62320;51.520;6.818;2024-01-27T09:41:43;103148.69;;;2.47;100.00
4528;BME280;62320;51.520;6.818;2024-01-27T09:51:45;103155.53;;;2.59;100.00
4528;BME280;62320;51.520;6.818;2024-01-27T10:01:48;103175.09;;;2.59;100.00
4528;BME280;62320;51.520;6.818;2024-01-27T10:11:49;103175.09;;;2.95;100.00
4528;BME280;62320;51.520;6.818;2024-01-27T10:22:00;103190.03;;;3.02;100.00
4528;BME280;62320;51.520;6.818;2024-01-27T10:32:09;103185.81;;;3.27;100.00
4528;BME280;62320;51.520;6.818;2024-01-27T10:42:11;103183.97;;;3.49;100.00
4528;BME280;62320;51.520;6.818;2024-01-27T10:52:15;103192.03;;;3.55;100.00
4528;BME280;62320;51.520;6.818;2024-01-27T11:02:20;103185.88;;;3.78;100.00
4528;BME280;62320;51.520;6.818;2024-01-27T11:12:23;103185.00;;;3.91;100.00
4528;BME280;62320;51.520;6.818;2024-01-27T11:22:28;103186.91;;;4.06;100.00
4528;BME280;62320;51.520;6.818;2024-01-27T11:32:31;103200.47;;;4.18;100.00
4528;BME280;62320;51.520;6.818;2024-01-27T11:42:34;103174.47;;;4.25;100.00
4528;BME280;62320;51.520;6.818;2024-01-27T11:52:35;103177.50;;;4.46;100.00
4528;BME280;62320;51.520;6.818;2024-01-27T12:02:38;103167.53;;;4.64;100.00
4528;BME280;62320;51.520;6.818;2024-01-27T12:12:40;103162.94;;;4.86;100.00
4528;BME280;62320;51.520;6.818;2024-01-27T12:22:41;103161.38;;;5.02;100.00
4528;BME280;62320;51.520;6.818;2024-01-27T12:32:43;103164.09;;;5.19;100.00
4528;BME280;62320;51.520;6.818;2024-01-27T12:42:44;103154.28;;;5.41;100.00
4528;BME280;62320;51.520;6.818;2024-01-27T12:52:46;103160.78;;;5.49;100.00
4528;BME280;62320;51.520;6.818;2024-01-27T13:02:47;103161.38;;;5.59;100.00
4528;BME280;62320;51.520;6.818;2024-01-27T13:12:49;103143.84;;;5.82;100.00
4528;BME280;62320;51.520;6.818;2024-01-27T13:22:50;103144.59;;;5.79;100.00
4528;BME280;62320;51.520;6.818;2024-01-27T13:32:54;103134.00;;;5.88;100.00
4528;BME280;62320;51.520;6.818;2024-01-27T13:42:55;103132.31;;;5.88;100.00
4528;BME280;62320;51.520;6.818;2024-01-27T13:52:57;103138.56;;;6.08;100.00
4528;BME280;62320;51.520;6.818;2024-01-27T14:02:59;103129.78;;;6.04;100.00
4528;BME280;62320;51.520;6.818;2024-01-27T14:13:01;103112.63;;;6.03;100.00
4528;BME280;62320;51.520;6.818;2024-01-27T14:23:05;103103.03;;;6.15;100.00
4528;BME280;62320;51.520;6.818;2024-01-27T14:33:07;103105.34;;;6.11;100.00
4528;BME280;62320;51.520;6.818;2024-01-27T14:43:10;103098.22;;;6.21;100.00
4528;BME280;62320;51.520;6.818;2024-01-27T14:53:13;103100.34;;;6.14;100.00
4528;BME280;62320;51.520;6.818;2024-01-27T15:03:15;103098.03;;;6.18;100.00
4528;BME280;62320;51.520;6.818;2024-01-27T15:13:17;103098.22;;;6.21;100.00
4528;BME280;62320;51.520;6.818;2024-01-27T15:23:21;103102.13;;;6.15;100.00
4528;BME280;62320;51.520;6.818;2024-01-27T15:33:26;103098.34;;;6.08;100.00
4528;BME280;62320;51.520;6.818;2024-01-27T15:43:28;103098.00;;;6.02;100.00
4528;BME280;62320;51.520;6.818;2024-01-27T15:53:29;103089.06;;;5.96;100.00
4528;BME280;62320;51.520;6.818;2024-01-27T16:03:31;103092.81;;;5.86;100.00
4528;BME280;62320;51.520;6.818;2024-01-27T16:13:32;103081.00;;;5.75;100.00
4528;BME280;62320;51.520;6.818;2024-01-27T16:23:34;103084.66;;;5.64;100.00
4528;BME280;62320;51.520;6.818;2024-01-27T16:33:35;103092.53;;;5.52;100.00
4528;BME280;62320;51.520;6.818;2024-01-27T16:43:37;103090.50;;;5.32;100.00
4528;BME280;62320;51.520;6.818;2024-01-27T16:53:39;103094.59;;;5.29;100.00
4528;BME280;62320;51.520;6.818;2024-01-27T17:03:40;103094.22;;;5.08;100.00
4528;BME280;62320;51.520;6.818;2024-01-27T17:13:42;103082.16;;;4.92;100.00
4528;BME280;62320;51.520;6.818;2024-01-27T17:23:43;103092.38;;;4.78;100.00
4528;BME280;62320;51.520;6.818;2024-01-27T17:33:45;103087.72;;;4.58;100.00
4528;BME280;62320;51.520;6.818;2024-01-27T17:43:48;103077.81;;;4.49;100.00
4528;BME280;62320;51.520;6.818;2024-01-27T17:53:50;103078.53;;;4.33;100.00
4528;BME280;62320;51.520;6.818;2024-01-27T18:03:52;103082.47;;;4.28;100.00
4528;BME280;62320;51.520;6.818;2024-01-27T18:13:55;103091.19;;;4.17;100.00
4528;BME280;62320;51.520;6.818;2024-01-27T18:23:57;103082.50;;;4.02;100.00
4528;BME280;62320;51.520;6.818;2024-01-27T18:33:58;103084.50;;;3.80;100.00
4528;BME280;62320;51.520;6.818;2024-01-27T18:44:00;103084.88;;;3.73;100.00
4528;BME280;62320;51.520;6.818;2024-01-27T18:54:01;103078.78;;;3.58;100.00
4528;BME280;62320;51.520;6.818;2024-01-27T19:04:03;103078.97;;;3.48;100.00
4528;BME280;62320;51.520;6.818;2024-01-27T19:14:05;103086.47;;;3.45;100.00
4528;BME280;62320;51.520;6.818;2024-01-27T19:24:07;103090.91;;;3.23;100.00
4528;BME280;62320;51.520;6.818;2024-01-27T19:34:09;103087.56;;;3.11;100.00
4528;BME280;62320;51.520;6.818;2024-01-27T19:44:11;103095.97;;;2.97;100.00
4528;BME280;62320;51.520;6.818;2024-01-27T19:54:12;103085.53;;;2.94;100.00
4528;BME280;62320;51.520;6.818;2024-01-27T20:04:14;103093.41;;;2.97;100.00
4528;BME280;62320;51.520;6.818;2024-01-27T20:14:15;103078.72;;;2.81;100.00
4528;BME280;62320;51.520;6.818;2024-01-27T20:24:18;103091.81;;;2.61;100.00
4528;BME280;62320;51.520;6.818;2024-01-27T20:34:19;103078.97;;;2.72;100.00
4528;BME280;62320;51.520;6.818;2024-01-27T20:44:22;103073.03;;;2.60;100.00
4528;BME280;62320;51.520;6.818;2024-01-27T20:54:24;103082.19;;;2.45;100.00
4528;BME280;62320;51.520;6.818;2024-01-27T21:04:25;103081.78;;;2.28;100.00
4528;BME280;62320;51.520;6.818;2024-01-27T21:14:27;103063.38;;;2.32;100.00
4528;BME280;62320;51.520;6.818;2024-01-27T21:24:30;103057.00;;;2.02;100.00
4528;BME280;62320;51.520;6.818;2024-01-27T21:34:32;103046.91;;;1.92;100.00
4528;BME280;62320;51.520;6.818;2024-01-27T21:44:33;103025.41;;;1.88;100.00
4528;BME280;62320;51.520;6.818;2024-01-27T21:54:39;103009.72;;;1.95;100.00
4528;BME280;62320;51.520;6.818;2024-01-27T22:04:40;103002.75;;;1.93;100.00
4528;BME280;62320;51.520;6.818;2024-01-27T22:14:42;102988.00;;;1.89;100.00
4528;BME280;62320;51.520;6.818;2024-01-27T22:24:43;102966.59;;;1.87;100.00
4528;BME280;62320;51.520;6.818;2024-01-27T22:34:45;102960.59;;;1.86;100.00
4528;BME280;62320;51.520;6.818;2024-01-27T22:44:48;102955.91;;;1.68;100.00
4528;BME280;62320;51.520;6.818;2024-01-27T22:54:50;102945.25;;;1.62;100.00
4528;BME280;62320;51.520;6.818;2024-01-27T23:04:52;102945.97;;;1.48;100.00
4528;BME280;62320;51.520;6.818;2024-01-27T23:14:54;102932.44;;;1.37;100.00
4528;BME280;62320;51.520;6.818;2024-01-27T23:24:55;102935.31;;;1.30;100.00
4528;BME280;62320;51.520;6.818;2024-01-27T23:34:57;102928.00;;;1.23;100.00
4528;BME280;62320;51.520;6.818;2024-01-27T23:44:58;102921.50;;;1.15;100.00
4528;BME280;62320;51.520;6.818;2024-01-27T23:55:01;102922.94;;;1.11;100.00
